Terminal Aerodrome Forecast
Issued by NWS Flagstaff, AZ

Home | Current Version | Previous Version | Text Only | Print | Product List | Glossary On
Versions: 1 2 3 4 5 6 7 8 9 10 11 12 13 14 15 16 17
000
FTUS45 KFGZ 152300 RRA
TAFFLG
TAF
KFLG 152342Z 1600/1624 34008KT P6SM SCT110
     FM160200 VRB03KT P6SM FEW110
     FM161800 13008KT P6SM SCT050
      TEMPO 1618/1622 VRB15G30KT 5SM TSRA BKN050CB=

USA.gov is the U.S. government's official web portal to all federal, state and local government web resources and services.